sensor_id;sensor_type;location;lat;lon;timestamp;temperature;humidity
46091;DHT22;31826;53.572;10.170;2023-05-14T00:01:19;14.40;91.00
46091;DHT22;31826;53.572;10.170;2023-05-14T00:03:45;14.40;91.00
46091;DHT22;31826;53.572;10.170;2023-05-14T00:06:11;14.30;91.10
46091;DHT22;31826;53.572;10.170;2023-05-14T00:08:36;14.30;91.20
46091;DHT22;31826;53.572;10.170;2023-05-14T00:11:02;14.30;91.30
46091;DHT22;31826;53.572;10.170;2023-05-14T00:13:28;14.30;91.20
46091;DHT22;31826;53.572;10.170;2023-05-14T00:15:53;14.30;91.50
46091;DHT22;31826;53.572;10.170;2023-05-14T00:18:19;14.20;91.50
46091;DHT22;31826;53.572;10.170;2023-05-14T00:20:45;14.20;91.60
46091;DHT22;31826;53.572;10.170;2023-05-14T00:23:11;14.00;91.90
46091;DHT22;31826;53.572;10.170;2023-05-14T00:25:36;14.10;92.10
46091;DHT22;31826;53.572;10.170;2023-05-14T00:28:03;14.10;91.80
46091;DHT22;31826;53.572;10.170;2023-05-14T00:30:28;14.10;92.00
46091;DHT22;31826;53.572;10.170;2023-05-14T00:32:54;14.10;91.90
46091;DHT22;31826;53.572;10.170;2023-05-14T00:35:20;14.10;92.30
46091;DHT22;31826;53.572;10.170;2023-05-14T00:37:46;14.20;92.50
46091;DHT22;31826;53.572;10.170;2023-05-14T00:40:12;14.10;92.00
46091;DHT22;31826;53.572;10.170;2023-05-14T00:42:39;14.00;92.10
46091;DHT22;31826;53.572;10.170;2023-05-14T00:45:06;13.80;92.10
46091;DHT22;31826;53.572;10.170;2023-05-14T00:47:31;13.80;92.50
46091;DHT22;31826;53.572;10.170;2023-05-14T00:49:59;13.70;92.60
46091;DHT22;31826;53.572;10.170;2023-05-14T00:52:25;13.60;92.80
46091;DHT22;31826;53.572;10.170;2023-05-14T00:54:52;13.50;92.90
46091;DHT22;31826;53.572;10.170;2023-05-14T00:57:18;13.50;93.40
46091;DHT22;31826;53.572;10.170;2023-05-14T00:59:44;13.40;93.30
46091;DHT22;31826;53.572;10.170;2023-05-14T01:02:10;13.50;93.30
46091;DHT22;31826;53.572;10.170;2023-05-14T01:04:36;13.50;93.40
46091;DHT22;31826;53.572;10.170;2023-05-14T01:07:20;13.50;93.40
46091;DHT22;31826;53.572;10.170;2023-05-14T01:10:00;13.50;93.50
46091;DHT22;31826;53.572;10.170;2023-05-14T01:15:11;13.40;93.90
46091;DHT22;31826;53.572;10.170;2023-05-14T01:17:47;13.50;93.80
46091;DHT22;31826;53.572;10.170;2023-05-14T01:20:13;13.60;94.00
46091;DHT22;31826;53.572;10.170;2023-05-14T01:22:39;13.50;93.60
46091;DHT22;31826;53.572;10.170;2023-05-14T01:25:06;13.60;93.70
46091;DHT22;31826;53.572;10.170;2023-05-14T01:27:40;13.50;93.80
46091;DHT22;31826;53.572;10.170;2023-05-14T01:30:30;13.50;93.90
46091;DHT22;31826;53.572;10.170;2023-05-14T01:32:59;13.50;94.00
46091;DHT22;31826;53.572;10.170;2023-05-14T01:35:27;13.50;94.00
46091;DHT22;31826;53.572;10.170;2023-05-14T01:37:56;13.40;94.10
46091;DHT22;31826;53.572;10.170;2023-05-14T01:40:23;13.40;94.40
46091;DHT22;31826;53.572;10.170;2023-05-14T01:42:50;13.30;94.50
46091;DHT22;31826;53.572;10.170;2023-05-14T01:45:19;13.40;94.60
46091;DHT22;31826;53.572;10.170;2023-05-14T01:47:44;13.40;94.60
46091;DHT22;31826;53.572;10.170;2023-05-14T01:50:10;13.30;94.60
46091;DHT22;31826;53.572;10.170;2023-05-14T01:52:36;13.30;95.40
46091;DHT22;31826;53.572;10.170;2023-05-14T01:55:01;13.40;95.40
46091;DHT22;31826;53.572;10.170;2023-05-14T01:57:28;13.40;95.60
46091;DHT22;31826;53.572;10.170;2023-05-14T01:59:54;13.40;95.40
46091;DHT22;31826;53.572;10.170;2023-05-14T02:02:19;13.40;95.50
46091;DHT22;31826;53.572;10.170;2023-05-14T02:04:45;13.30;95.40
46091;DHT22;31826;53.572;10.170;2023-05-14T02:07:11;13.30;95.60
46091;DHT22;31826;53.572;10.170;2023-05-14T02:09:36;13.30;95.70
46091;DHT22;31826;53.572;10.170;2023-05-14T02:12:02;13.20;95.60
46091;DHT22;31826;53.572;10.170;2023-05-14T02:14:28;13.10;95.30
46091;DHT22;31826;53.572;10.170;2023-05-14T02:16:54;13.00;95.60
46091;DHT22;31826;53.572;10.170;2023-05-14T02:19:19;13.00;95.80
46091;DHT22;31826;53.572;10.170;2023-05-14T02:21:45;12.90;96.00
46091;DHT22;31826;53.572;10.170;2023-05-14T02:24:11;12.90;96.20
46091;DHT22;31826;53.572;10.170;2023-05-14T02:26:36;12.90;96.50
46091;DHT22;31826;53.572;10.170;2023-05-14T02:29:02;13.00;96.30
46091;DHT22;31826;53.572;10.170;2023-05-14T02:31:28;13.00;96.40
46091;DHT22;31826;53.572;10.170;2023-05-14T02:33:53;12.90;96.60
46091;DHT22;31826;53.572;10.170;2023-05-14T02:36:19;12.90;96.80
46091;DHT22;31826;53.572;10.170;2023-05-14T02:38:45;12.90;97.00
46091;DHT22;31826;53.572;10.170;2023-05-14T02:41:10;12.80;97.00
46091;DHT22;31826;53.572;10.170;2023-05-14T02:43:36;12.80;97.20
46091;DHT22;31826;53.572;10.170;2023-05-14T02:46:02;12.70;97.60
46091;DHT22;31826;53.572;10.170;2023-05-14T02:48:28;12.60;97.60
46091;DHT22;31826;53.572;10.170;2023-05-14T02:50:53;12.50;98.10
46091;DHT22;31826;53.572;10.170;2023-05-14T02:53:19;12.30;98.30
46091;DHT22;31826;53.572;10.170;2023-05-14T02:55:45;12.30;98.90
46091;DHT22;31826;53.572;10.170;2023-05-14T02:58:10;12.30;98.80
46091;DHT22;31826;53.572;10.170;2023-05-14T03:00:36;12.00;99.30
46091;DHT22;31826;53.572;10.170;2023-05-14T03:03:02;11.90;99.90
46091;DHT22;31826;53.572;10.170;2023-05-14T03:05:28;12.00;99.90
46091;DHT22;31826;53.572;10.170;2023-05-14T03:07:53;12.00;99.90
46091;DHT22;31826;53.572;10.170;2023-05-14T03:10:19;12.20;99.90
46091;DHT22;31826;53.572;10.170;2023-05-14T03:12:45;12.30;99.90
46091;DHT22;31826;53.572;10.170;2023-05-14T03:15:11;12.50;99.90
46091;DHT22;31826;53.572;10.170;2023-05-14T03:17:37;12.40;99.60
46091;DHT22;31826;53.572;10.170;2023-05-14T03:20:03;12.30;99.20
46091;DHT22;31826;53.572;10.170;2023-05-14T03:22:28;12.30;99.60
46091;DHT22;31826;53.572;10.170;2023-05-14T03:24:54;12.30;99.60
46091;DHT22;31826;53.572;10.170;2023-05-14T03:27:20;12.30;99.60
46091;DHT22;31826;53.572;10.170;2023-05-14T03:29:46;12.30;99.70
46091;DHT22;31826;53.572;10.170;2023-05-14T03:32:11;12.20;99.60
46091;DHT22;31826;53.572;10.170;2023-05-14T03:34:37;12.20;99.90
46091;DHT22;31826;53.572;10.170;2023-05-14T03:37:03;12.30;99.90
46091;DHT22;31826;53.572;10.170;2023-05-14T03:39:29;12.30;99.80
46091;DHT22;31826;53.572;10.170;2023-05-14T03:41:54;12.30;99.60
46091;DHT22;31826;53.572;10.170;2023-05-14T03:44:23;12.30;99.70
46091;DHT22;31826;53.572;10.170;2023-05-14T03:46:49;12.30;99.60
46091;DHT22;31826;53.572;10.170;2023-05-14T03:49:15;12.20;99.90
46091;DHT22;31826;53.572;10.170;2023-05-14T03:51:40;12.20;99.90
46091;DHT22;31826;53.572;10.170;2023-05-14T03:54:06;12.20;99.90
46091;DHT22;31826;53.572;10.170;2023-05-14T03:56:32;12.20;99.90
46091;DHT22;31826;53.572;10.170;2023-05-14T03:58:57;12.10;99.90
46091;DHT22;31826;53.572;10.170;2023-05-14T04:01:23;12.10;99.90
46091;DHT22;31826;53.572;10.170;2023-05-14T04:03:49;12.20;99.90
46091;DHT22;31826;53.572;10.170;2023-05-14T04:06:14;12.20;99.90
46091;DHT22;31826;53.572;10.170;2023-05-14T04:08:40;12.20;99.90
46091;DHT22;31826;53.572;10.170;2023-05-14T04:11:06;12.20;99.90
46091;DHT22;31826;53.572;10.170;2023-05-14T04:13:32;12.30;99.90
46091;DHT22;31826;53.572;10.170;2023-05-14T04:15:58;12.30;99.90
46091;DHT22;31826;53.572;10.170;2023-05-14T04:18:24;12.40;99.90
46091;DHT22;31826;53.572;10.170;2023-05-14T04:20:50;12.30;99.90
46091;DHT22;31826;53.572;10.170;2023-05-14T04:23:16;12.40;99.90
46091;DHT22;31826;53.572;10.170;2023-05-14T04:25:41;12.50;99.90
46091;DHT22;31826;53.572;10.170;2023-05-14T04:28:07;12.50;99.90
46091;DHT22;31826;53.572;10.170;2023-05-14T04:30:32;12.60;99.90
46091;DHT22;31826;53.572;10.170;2023-05-14T04:32:58;12.70;99.90
46091;DHT22;31826;53.572;10.170;2023-05-14T04:35:24;12.60;99.90
46091;DHT22;31826;53.572;10.170;2023-05-14T04:37:49;12.70;99.90
46091;DHT22;31826;53.572;10.170;2023-05-14T04:40:15;12.60;99.90
46091;DHT22;31826;53.572;10.170;2023-05-14T04:42:41;12.70;99.90
46091;DHT22;31826;53.572;10.170;2023-05-14T04:45:08;12.80;99.90
46091;DHT22;31826;53.572;10.170;2023-05-14T04:47:34;12.90;99.90
46091;DHT22;31826;53.572;10.170;2023-05-14T04:50:00;12.90;99.90
46091;DHT22;31826;53.572;10.170;2023-05-14T04:52:26;12.90;99.90
46091;DHT22;31826;53.572;10.170;2023-05-14T04:54:51;12.90;99.90
46091;DHT22;31826;53.572;10.170;2023-05-14T04:57:17;12.80;99.90
46091;DHT22;31826;53.572;10.170;2023-05-14T04:59:43;12.50;99.90
46091;DHT22;31826;53.572;10.170;2023-05-14T05:02:09;12.50;99.90
46091;DHT22;31826;53.572;10.170;2023-05-14T05:04:34;12.60;99.90
46091;DHT22;31826;53.572;10.170;2023-05-14T05:07:01;12.70;99.90
46091;DHT22;31826;53.572;10.170;2023-05-14T05:09:26;12.70;99.90
46091;DHT22;31826;53.572;10.170;2023-05-14T05:11:52;12.90;99.90
46091;DHT22;31826;53.572;10.170;2023-05-14T05:14:18;13.10;99.90
46091;DHT22;31826;53.572;10.170;2023-05-14T05:16:43;13.10;99.90
46091;DHT22;31826;53.572;10.170;2023-05-14T05:19:09;13.00;99.90
46091;DHT22;31826;53.572;10.170;2023-05-14T05:21:35;13.00;99.90
46091;DHT22;31826;53.572;10.170;2023-05-14T05:24:01;13.10;99.90
46091;DHT22;31826;53.572;10.170;2023-05-14T05:26:27;13.00;99.90
46091;DHT22;31826;53.572;10.170;2023-05-14T05:28:52;13.20;99.90
46091;DHT22;31826;53.572;10.170;2023-05-14T05:31:18;13.20;99.90
46091;DHT22;31826;53.572;10.170;2023-05-14T05:33:44;13.40;99.90
46091;DHT22;31826;53.572;10.170;2023-05-14T05:36:10;13.40;99.90
46091;DHT22;31826;53.572;10.170;2023-05-14T05:38:35;13.50;99.90
46091;DHT22;31826;53.572;10.170;2023-05-14T05:41:01;13.60;99.90
46091;DHT22;31826;53.572;10.170;2023-05-14T05:43:27;13.70;99.90
46091;DHT22;31826;53.572;10.170;2023-05-14T05:45:53;13.90;99.90
46091;DHT22;31826;53.572;10.170;2023-05-14T05:48:19;14.10;99.90
46091;DHT22;31826;53.572;10.170;2023-05-14T05:50:47;14.20;99.90
46091;DHT22;31826;53.572;10.170;2023-05-14T05:53:13;14.30;99.90
46091;DHT22;31826;53.572;10.170;2023-05-14T05:55:41;14.40;99.90
46091;DHT22;31826;53.572;10.170;2023-05-14T05:58:07;14.60;99.90
46091;DHT22;31826;53.572;10.170;2023-05-14T06:00:32;14.60;99.90
46091;DHT22;31826;53.572;10.170;2023-05-14T06:02:58;14.70;99.20
46091;DHT22;31826;53.572;10.170;2023-05-14T06:05:24;14.90;99.60
46091;DHT22;31826;53.572;10.170;2023-05-14T06:07:50;14.90;98.70
46091;DHT22;31826;53.572;10.170;2023-05-14T06:10:18;14.90;99.00
46091;DHT22;31826;53.572;10.170;2023-05-14T06:12:43;15.10;98.80
46091;DHT22;31826;53.572;10.170;2023-05-14T06:15:10;15.20;98.70
46091;DHT22;31826;53.572;10.170;2023-05-14T06:17:36;15.20;98.00
46091;DHT22;31826;53.572;10.170;2023-05-14T06:20:03;15.30;98.60
46091;DHT22;31826;53.572;10.170;2023-05-14T06:22:30;15.60;98.50
46091;DHT22;31826;53.572;10.170;2023-05-14T06:24:56;15.50;97.70
46091;DHT22;31826;53.572;10.170;2023-05-14T06:27:21;15.50;97.60
46091;DHT22;31826;53.572;10.170;2023-05-14T06:29:47;15.70;98.60
46091;DHT22;31826;53.572;10.170;2023-05-14T06:32:13;15.80;97.10
46091;DHT22;31826;53.572;10.170;2023-05-14T06:34:40;15.90;97.10
46091;DHT22;31826;53.572;10.170;2023-05-14T06:37:07;15.90;96.90
46091;DHT22;31826;53.572;10.170;2023-05-14T06:39:34;16.00;96.80
46091;DHT22;31826;53.572;10.170;2023-05-14T06:42:00;16.10;96.60
46091;DHT22;31826;53.572;10.170;2023-05-14T06:44:26;16.30;97.40
46091;DHT22;31826;53.572;10.170;2023-05-14T06:46:52;16.50;96.70
46091;DHT22;31826;53.572;10.170;2023-05-14T06:49:17;16.80;96.50
46091;DHT22;31826;53.572;10.170;2023-05-14T06:51:43;16.80;94.70
46091;DHT22;31826;53.572;10.170;2023-05-14T06:54:09;16.90;95.30
46091;DHT22;31826;53.572;10.170;2023-05-14T06:56:35;17.00;95.00
46091;DHT22;31826;53.572;10.170;2023-05-14T06:59:00;17.10;96.70
46091;DHT22;31826;53.572;10.170;2023-05-14T07:01:26;17.00;93.90
46091;DHT22;31826;53.572;10.170;2023-05-14T07:03:52;17.00;94.40
46091;DHT22;31826;53.572;10.170;2023-05-14T07:06:18;17.00;94.30
46091;DHT22;31826;53.572;10.170;2023-05-14T07:08:43;17.10;94.30
46091;DHT22;31826;53.572;10.170;2023-05-14T07:11:12;17.30;94.50
46091;DHT22;31826;53.572;10.170;2023-05-14T07:13:38;17.40;93.50
46091;DHT22;31826;53.572;10.170;2023-05-14T07:16:04;17.40;93.30
46091;DHT22;31826;53.572;10.170;2023-05-14T07:18:30;17.30;93.50
46091;DHT22;31826;53.572;10.170;2023-05-14T07:20:56;17.30;93.20
46091;DHT22;31826;53.572;10.170;2023-05-14T07:23:21;17.20;93.10
46091;DHT22;31826;53.572;10.170;2023-05-14T07:25:47;17.40;93.80
46091;DHT22;31826;53.572;10.170;2023-05-14T07:28:13;17.70;94.40
46091;DHT22;31826;53.572;10.170;2023-05-14T07:30:38;18.00;92.90
46091;DHT22;31826;53.572;10.170;2023-05-14T07:33:04;18.10;93.00
46091;DHT22;31826;53.572;10.170;2023-05-14T07:35:30;18.30;91.60
46091;DHT22;31826;53.572;10.170;2023-05-14T07:37:55;18.40;91.50
46091;DHT22;31826;53.572;10.170;2023-05-14T07:40:21;18.30;90.80
46091;DHT22;31826;53.572;10.170;2023-05-14T07:42:49;18.10;90.00
46091;DHT22;31826;53.572;10.170;2023-05-14T07:45:15;18.20;91.20
46091;DHT22;31826;53.572;10.170;2023-05-14T07:47:40;18.50;90.50
46091;DHT22;31826;53.572;10.170;2023-05-14T07:50:07;18.70;91.60
46091;DHT22;31826;53.572;10.170;2023-05-14T07:52:32;18.90;89.90
46091;DHT22;31826;53.572;10.170;2023-05-14T07:54:58;19.00;87.90
46091;DHT22;31826;53.572;10.170;2023-05-14T07:57:26;18.90;86.80
46091;DHT22;31826;53.572;10.170;2023-05-14T07:59:52;18.70;87.00
46091;DHT22;31826;53.572;10.170;2023-05-14T08:02:17;18.90;89.90
46091;DHT22;31826;53.572;10.170;2023-05-14T08:04:43;19.00;85.60
46091;DHT22;31826;53.572;10.170;2023-05-14T08:07:09;19.20;87.40
46091;DHT22;31826;53.572;10.170;2023-05-14T08:09:35;19.30;85.10
46091;DHT22;31826;53.572;10.170;2023-05-14T08:12:01;19.40;86.30
46091;DHT22;31826;53.572;10.170;2023-05-14T08:14:27;19.70;86.50
46091;DHT22;31826;53.572;10.170;2023-05-14T08:16:53;19.80;83.20
46091;DHT22;31826;53.572;10.170;2023-05-14T08:19:19;19.80;83.20
46091;DHT22;31826;53.572;10.170;2023-05-14T08:21:44;20.10;87.20
46091;DHT22;31826;53.572;10.170;2023-05-14T08:24:10;20.40;82.00
46091;DHT22;31826;53.572;10.170;2023-05-14T08:26:36;20.40;80.80
46091;DHT22;31826;53.572;10.170;2023-05-14T08:29:03;20.10;80.90
46091;DHT22;31826;53.572;10.170;2023-05-14T08:31:29;20.00;81.90
46091;DHT22;31826;53.572;10.170;2023-05-14T08:33:55;20.00;80.50
46091;DHT22;31826;53.572;10.170;2023-05-14T08:36:21;20.00;82.50
46091;DHT22;31826;53.572;10.170;2023-05-14T08:38:46;20.40;81.40
46091;DHT22;31826;53.572;10.170;2023-05-14T08:41:14;20.60;78.40
46091;DHT22;31826;53.572;10.170;2023-05-14T08:46:36;20.80;79.70
46091;DHT22;31826;53.572;10.170;2023-05-14T08:49:14;21.20;80.20
46091;DHT22;31826;53.572;10.170;2023-05-14T08:51:45;21.60;77.80
46091;DHT22;31826;53.572;10.170;2023-05-14T08:54:14;21.70;79.80
46091;DHT22;31826;53.572;10.170;2023-05-14T08:56:43;22.00;74.70
46091;DHT22;31826;53.572;10.170;2023-05-14T08:59:09;22.10;74.10
46091;DHT22;31826;53.572;10.170;2023-05-14T09:01:36;22.00;73.00
46091;DHT22;31826;53.572;10.170;2023-05-14T09:04:03;21.90;71.70
46091;DHT22;31826;53.572;10.170;2023-05-14T09:06:36;21.70;72.50
46091;DHT22;31826;53.572;10.170;2023-05-14T09:09:03;21.70;72.30
46091;DHT22;31826;53.572;10.170;2023-05-14T09:11:29;21.80;72.60
46091;DHT22;31826;53.572;10.170;2023-05-14T09:13:55;21.80;70.70
46091;DHT22;31826;53.572;10.170;2023-05-14T09:16:21;21.50;71.90
46091;DHT22;31826;53.572;10.170;2023-05-14T09:18:47;21.70;73.00
46091;DHT22;31826;53.572;10.170;2023-05-14T09:21:13;22.00;70.30
46091;DHT22;31826;53.572;10.170;2023-05-14T09:23:43;22.10;68.80
46091;DHT22;31826;53.572;10.170;2023-05-14T09:26:10;22.00;69.00
46091;DHT22;31826;53.572;10.170;2023-05-14T09:28:39;22.10;69.40
46091;DHT22;31826;53.572;10.170;2023-05-14T09:31:08;22.30;69.60
46091;DHT22;31826;53.572;10.170;2023-05-14T09:33:34;22.40;68.60
46091;DHT22;31826;53.572;10.170;2023-05-14T09:36:01;22.50;68.70
46091;DHT22;31826;53.572;10.170;2023-05-14T09:38:31;22.50;67.30
46091;DHT22;31826;53.572;10.170;2023-05-14T09:41:00;22.30;69.10
46091;DHT22;31826;53.572;10.170;2023-05-14T09:43:26;22.40;68.60
46091;DHT22;31826;53.572;10.170;2023-05-14T09:45:52;22.60;65.90
46091;DHT22;31826;53.572;10.170;2023-05-14T09:48:18;22.30;66.60
46091;DHT22;31826;53.572;10.170;2023-05-14T09:50:45;22.40;66.60
46091;DHT22;31826;53.572;10.170;2023-05-14T09:53:12;22.20;67.90
46091;DHT22;31826;53.572;10.170;2023-05-14T09:55:38;22.60;68.30
46091;DHT22;31826;53.572;10.170;2023-05-14T09:58:04;23.00;67.30
46091;DHT22;31826;53.572;10.170;2023-05-14T10:00:31;22.70;67.50
46091;DHT22;31826;53.572;10.170;2023-05-14T10:02:57;22.40;66.60
46091;DHT22;31826;53.572;10.170;2023-05-14T10:05:23;22.00;64.60
46091;DHT22;31826;53.572;10.170;2023-05-14T10:07:53;21.80;67.00
46091;DHT22;31826;53.572;10.170;2023-05-14T10:10:20;21.60;66.80
46091;DHT22;31826;53.572;10.170;2023-05-14T10:12:56;22.00;68.30
46091;DHT22;31826;53.572;10.170;2023-05-14T10:18:19;22.80;63.90
46091;DHT22;31826;53.572;10.170;2023-05-14T10:21:05;22.90;63.70
46091;DHT22;31826;53.572;10.170;2023-05-14T10:23:32;23.30;66.90
46091;DHT22;31826;53.572;10.170;2023-05-14T10:25:59;23.60;62.80
46091;DHT22;31826;53.572;10.170;2023-05-14T10:28:26;23.70;63.20
46091;DHT22;31826;53.572;10.170;2023-05-14T10:30:53;23.80;62.10
46091;DHT22;31826;53.572;10.170;2023-05-14T10:33:18;23.80;60.40
46091;DHT22;31826;53.572;10.170;2023-05-14T10:36:04;23.70;60.60
46091;DHT22;31826;53.572;10.170;2023-05-14T10:38:36;23.80;62.20
46091;DHT22;31826;53.572;10.170;2023-05-14T10:41:03;24.00;60.10
46091;DHT22;31826;53.572;10.170;2023-05-14T10:43:30;23.70;61.50
46091;DHT22;31826;53.572;10.170;2023-05-14T10:45:59;23.60;65.80
46091;DHT22;31826;53.572;10.170;2023-05-14T10:48:25;23.80;60.50
46091;DHT22;31826;53.572;10.170;2023-05-14T10:50:52;23.70;63.00
46091;DHT22;31826;53.572;10.170;2023-05-14T10:53:18;23.60;60.80
46091;DHT22;31826;53.572;10.170;2023-05-14T10:55:44;23.40;61.70
46091;DHT22;31826;53.572;10.170;2023-05-14T10:58:11;23.80;63.20
46091;DHT22;31826;53.572;10.170;2023-05-14T11:00:37;24.20;62.80
46091;DHT22;31826;53.572;10.170;2023-05-14T11:03:05;24.30;64.30
46091;DHT22;31826;53.572;10.170;2023-05-14T11:05:32;24.00;62.90
46091;DHT22;31826;53.572;10.170;2023-05-14T11:07:58;24.10;63.20
46091;DHT22;31826;53.572;10.170;2023-05-14T11:10:28;23.50;62.00
46091;DHT22;31826;53.572;10.170;2023-05-14T11:12:55;22.90;64.20
46091;DHT22;31826;53.572;10.170;2023-05-14T11:15:23;22.70;64.50
46091;DHT22;31826;53.572;10.170;2023-05-14T11:17:51;22.30;65.60
46091;DHT22;31826;53.572;10.170;2023-05-14T11:20:17;22.10;66.50
46091;DHT22;31826;53.572;10.170;2023-05-14T11:22:44;22.10;66.20
46091;DHT22;31826;53.572;10.170;2023-05-14T11:25:11;22.50;66.30
46091;DHT22;31826;53.572;10.170;2023-05-14T11:27:43;22.30;65.80
46091;DHT22;31826;53.572;10.170;2023-05-14T11:30:17;22.20;66.10
46091;DHT22;31826;53.572;10.170;2023-05-14T11:32:45;22.20;66.70
46091;DHT22;31826;53.572;10.170;2023-05-14T11:35:11;22.10;67.10
46091;DHT22;31826;53.572;10.170;2023-05-14T11:37:37;22.00;67.70
46091;DHT22;31826;53.572;10.170;2023-05-14T11:40:07;22.00;68.50
46091;DHT22;31826;53.572;10.170;2023-05-14T11:42:35;22.00;68.60
46091;DHT22;31826;53.572;10.170;2023-05-14T11:45:01;21.90;67.40
46091;DHT22;31826;53.572;10.170;2023-05-14T11:47:28;21.90;66.80
46091;DHT22;31826;53.572;10.170;2023-05-14T11:49:54;22.00;68.30
46091;DHT22;31826;53.572;10.170;2023-05-14T11:52:19;22.10;68.10
46091;DHT22;31826;53.572;10.170;2023-05-14T11:54:46;22.00;70.30
46091;DHT22;31826;53.572;10.170;2023-05-14T11:57:14;22.20;68.50
46091;DHT22;31826;53.572;10.170;2023-05-14T11:59:40;21.90;62.90
46091;DHT22;31826;53.572;10.170;2023-05-14T12:02:12;21.70;60.90
46091;DHT22;31826;53.572;10.170;2023-05-14T12:04:38;21.60;61.30
46091;DHT22;31826;53.572;10.170;2023-05-14T12:07:08;21.50;61.50
46091;DHT22;31826;53.572;10.170;2023-05-14T12:09:36;21.60;63.10
46091;DHT22;31826;53.572;10.170;2023-05-14T12:12:10;21.50;62.40
46091;DHT22;31826;53.572;10.170;2023-05-14T12:14:37;21.40;62.70
46091;DHT22;31826;53.572;10.170;2023-05-14T12:17:18;21.50;64.10
46091;DHT22;31826;53.572;10.170;2023-05-14T12:19:46;21.70;63.20
46091;DHT22;31826;53.572;10.170;2023-05-14T12:22:20;22.20;64.40
46091;DHT22;31826;53.572;10.170;2023-05-14T12:24:58;22.50;63.90
46091;DHT22;31826;53.572;10.170;2023-05-14T12:27:25;22.40;60.80
46091;DHT22;31826;53.572;10.170;2023-05-14T12:30:01;22.50;61.00
46091;DHT22;31826;53.572;10.170;2023-05-14T12:32:30;23.00;63.00
46091;DHT22;31826;53.572;10.170;2023-05-14T12:34:57;23.80;62.80
46091;DHT22;31826;53.572;10.170;2023-05-14T12:37:23;24.40;60.40
46091;DHT22;31826;53.572;10.170;2023-05-14T12:39:49;24.80;61.10
46091;DHT22;31826;53.572;10.170;2023-05-14T12:42:15;25.20;61.00
46091;DHT22;31826;53.572;10.170;2023-05-14T12:44:40;25.20;57.90
46091;DHT22;31826;53.572;10.170;2023-05-14T12:47:07;25.00;57.80
46091;DHT22;31826;53.572;10.170;2023-05-14T12:49:33;25.00;60.20
46091;DHT22;31826;53.572;10.170;2023-05-14T12:51:58;25.60;61.90
46091;DHT22;31826;53.572;10.170;2023-05-14T12:54:24;25.50;61.50
46091;DHT22;31826;53.572;10.170;2023-05-14T12:56:50;25.40;61.20
46091;DHT22;31826;53.572;10.170;2023-05-14T12:59:15;25.20;61.50
46091;DHT22;31826;53.572;10.170;2023-05-14T13:01:41;24.60;61.00
46091;DHT22;31826;53.572;10.170;2023-05-14T13:04:09;23.90;60.90
46091;DHT22;31826;53.572;10.170;2023-05-14T13:06:37;23.50;62.20
46091;DHT22;31826;53.572;10.170;2023-05-14T13:09:03;23.20;64.80
46091;DHT22;31826;53.572;10.170;2023-05-14T13:11:29;22.90;64.50
46091;DHT22;31826;53.572;10.170;2023-05-14T13:13:57;22.70;68.80
46091;DHT22;31826;53.572;10.170;2023-05-14T13:16:27;22.40;74.30
46091;DHT22;31826;53.572;10.170;2023-05-14T13:18:53;22.00;76.60
46091;DHT22;31826;53.572;10.170;2023-05-14T13:21:19;21.70;78.30
46091;DHT22;31826;53.572;10.170;2023-05-14T13:23:45;21.40;83.30
46091;DHT22;31826;53.572;10.170;2023-05-14T13:26:11;21.30;78.30
46091;DHT22;31826;53.572;10.170;2023-05-14T13:28:36;21.10;78.10
46091;DHT22;31826;53.572;10.170;2023-05-14T13:31:04;21.00;82.80
46091;DHT22;31826;53.572;10.170;2023-05-14T13:33:32;20.70;80.50
46091;DHT22;31826;53.572;10.170;2023-05-14T13:35:58;20.60;81.90
46091;DHT22;31826;53.572;10.170;2023-05-14T13:38:24;20.70;81.60
46091;DHT22;31826;53.572;10.170;2023-05-14T13:40:50;20.70;79.20
46091;DHT22;31826;53.572;10.170;2023-05-14T13:43:15;20.90;80.90
46091;DHT22;31826;53.572;10.170;2023-05-14T13:45:41;21.00;74.80
46091;DHT22;31826;53.572;10.170;2023-05-14T13:48:07;21.20;79.80
46091;DHT22;31826;53.572;10.170;2023-05-14T13:50:32;21.40;80.10
46091;DHT22;31826;53.572;10.170;2023-05-14T13:52:58;21.60;80.60
46091;DHT22;31826;53.572;10.170;2023-05-14T13:55:24;21.90;79.70
46091;DHT22;31826;53.572;10.170;2023-05-14T13:57:50;22.20;79.20
46091;DHT22;31826;53.572;10.170;2023-05-14T14:00:16;22.40;78.50
46091;DHT22;31826;53.572;10.170;2023-05-14T14:02:41;22.60;79.30
46091;DHT22;31826;53.572;10.170;2023-05-14T14:05:07;22.50;77.50
46091;DHT22;31826;53.572;10.170;2023-05-14T14:07:33;22.30;76.00
46091;DHT22;31826;53.572;10.170;2023-05-14T14:09:59;21.90;75.20
46091;DHT22;31826;53.572;10.170;2023-05-14T14:12:26;21.90;77.10
46091;DHT22;31826;53.572;10.170;2023-05-14T14:14:52;21.90;76.10
46091;DHT22;31826;53.572;10.170;2023-05-14T14:17:17;22.10;77.70
46091;DHT22;31826;53.572;10.170;2023-05-14T14:19:43;22.50;77.50
46091;DHT22;31826;53.572;10.170;2023-05-14T14:22:09;22.50;75.70
46091;DHT22;31826;53.572;10.170;2023-05-14T14:24:36;22.70;77.00
46091;DHT22;31826;53.572;10.170;2023-05-14T14:27:02;23.00;76.80
46091;DHT22;31826;53.572;10.170;2023-05-14T14:29:28;23.00;76.30
46091;DHT22;31826;53.572;10.170;2023-05-14T14:31:55;23.20;76.50
46091;DHT22;31826;53.572;10.170;2023-05-14T14:34:21;23.60;76.10
46091;DHT22;31826;53.572;10.170;2023-05-14T14:36:47;23.50;74.20
46091;DHT22;31826;53.572;10.170;2023-05-14T14:39:13;23.40;70.40
46091;DHT22;31826;53.572;10.170;2023-05-14T14:41:38;23.30;66.30
46091;DHT22;31826;53.572;10.170;2023-05-14T14:44:04;23.40;68.10
46091;DHT22;31826;53.572;10.170;2023-05-14T14:46:31;23.60;61.90
46091;DHT22;31826;53.572;10.170;2023-05-14T14:48:57;23.70;64.50
46091;DHT22;31826;53.572;10.170;2023-05-14T14:51:23;24.10;65.00
46091;DHT22;31826;53.572;10.170;2023-05-14T14:53:48;24.50;69.00
46091;DHT22;31826;53.572;10.170;2023-05-14T14:56:14;24.90;63.60
46091;DHT22;31826;53.572;10.170;2023-05-14T14:58:40;25.20;63.60
46091;DHT22;31826;53.572;10.170;2023-05-14T15:01:06;25.00;62.30
46091;DHT22;31826;53.572;10.170;2023-05-14T15:03:32;24.90;63.60
46091;DHT22;31826;53.572;10.170;2023-05-14T15:05:57;24.60;63.50
46091;DHT22;31826;53.572;10.170;2023-05-14T15:08:25;24.60;62.50
46091;DHT22;31826;53.572;10.170;2023-05-14T15:10:54;24.50;62.90
46091;DHT22;31826;53.572;10.170;2023-05-14T15:13:20;24.40;62.20
46091;DHT22;31826;53.572;10.170;2023-05-14T15:15:46;24.40;63.30
46091;DHT22;31826;53.572;10.170;2023-05-14T15:18:12;24.60;64.90
46091;DHT22;31826;53.572;10.170;2023-05-14T15:20:37;24.70;64.70